Pedro Fonseca

Scout - Fortaleza
5 Dez 2027
Sonntag
Verarbeitung

Persönlichkeit

Anpassungsfähigkeit (12) Ehrgeiz (8) Kontroverse (7) Loyalität (11) Druck (8) Professionalität (19) Fairness (12) Temperament (8)

Profil

Trainerstil Demokratisch
Lizenz Nationale C
Entschlossenheit 12
Menschenführung 10
Motivation 10
Disziplin 12
Arbeitszufriedenheit
100%
Ermüdung
0%
Rolle Scout
Gehalt 68.8K p/W
Vertrag 30.06.2030

Leistung

Verhalten Gut
Trainingseffektivität
36%
Spielerentwicklung
40%
Verletzungsprävention
20%
Taktische Umsetzung
40%

Letzte Ereignisse

Nahm an einer Scouting-Besprechung teil jetzt
Empfahl ein Transferziel jetzt
Nahm an einer Scouting-Besprechung teil jetzt
Nahm an einer Scouting-Besprechung teil 7T her
Empfahl ein Transferziel 7T her
Nahm an einer Scouting-Besprechung teil 7T her
Empfahl ein Transferziel 14T her
Nahm an einer Scouting-Besprechung teil 14T her

Aktuell beobachtet

167
Spieler Verein Status Fähigkeit Vertrauen Beobachtet Zuletzt beobachtet Letzte Stimme
Edenílson Vitória Bericht bereit 109 / 104 79% 1 02.12.2027 -
Mayke Bahia Verhandlung 111 / 120 79% 1 01.12.2027 -
Tomás Ferreyra Defensores Unidos Aktiv 109 / 113 40% 1 01.12.2027 -
Riku Yamane Yokohama F. Marinos Aktiv 128 / 136 40% 1 01.12.2027 -
Tomás Porra Barracas Central Aktiv 112 / 125 40% 1 01.12.2027 -
Ronald Vitória Aktiv 115 / 122 76% 1 12.07.2027 Befürworten
Jarleysom Portimonense Aktiv 108 / 116 40% 4 01.06.2027 -
Yehor Yarmoliuk Brentford Aktiv 142 / 148 40% 3 01.06.2027 -
Georgie Gent Barnsley Aktiv 115 / 109 40% 1 01.06.2027 -
Tino Livramento Newcastle United Aktiv 152 / 156 40% 5 31.05.2027 -
Emile Smith Rowe Fulham Aktiv 154 / 159 40% 1 31.05.2027 -
Brooke Norton-Cuffy Hull City Aktiv 140 / 131 40% 5 30.05.2027 -
João Muniz Sporting CP Aktiv 127 / 115 40% 2 30.05.2027 -
Noah Sadiki Sunderland Aktiv 138 / 153 40% 2 30.05.2027 -
Jacob Greaves Ipswich Town Aktiv 147 / 133 40% 1 30.05.2027 -
Lautaro Herrera Estudiantes Aktiv 98 / 98 40% 1 29.05.2027 -
Franco Villalba Vélez Aktiv 98 / 110 40% 1 29.05.2027 -
Callum Hudson-Odoi Nottingham Forest Aktiv 157 / 146 40% 1 29.05.2027 -
Ronald Swansea City Aktiv 126 / 126 40% 1 29.05.2027 -
Éderson Atalanta Aktiv 159 / 151 40% 5 28.05.2027 -
Rodrigo Gomes Wolverhampton Aktiv 138 / 145 40% 1 28.05.2027 -
Carlos Alcaraz Everton Aktiv 146 / 151 40% 1 27.05.2027 -
Yankuba Minteh Brighton Aktiv 155 / 156 40% 1 27.05.2027 -
Dango Ouattara Brentford Aktiv 140 / 157 40% 2 26.05.2027 -
Milan van Ewijk Coventry City Aktiv 133 / 137 40% 2 26.05.2027 -
Yeremy Pino Crystal Palace Aktiv 145 / 143 40% 1 26.05.2027 -
Jack Rudoni Coventry City Aktiv 135 / 130 40% 1 26.05.2027 -
Aidan Morris Middlesbrough Aktiv 139 / 137 40% 1 26.05.2027 -
Hidemasa Morita Hull City Aktiv 134 / 146 40% 1 26.05.2027 -
Matthias Da Silva Olympique Lyonnais Aktiv 91 / 103 40% 2 25.05.2027 -
Julián Alcar Banfield Aktiv 80 / 89 40% 1 25.05.2027 -
Luka Kolar NK Domzale Aktiv 99 / 114 40% 1 25.05.2027 -
Boubacar Kamara Aston Villa Aktiv 173 / 158 40% 4 24.05.2027 -
Gustavo Hamer Sheffield United Aktiv 142 / 128 40% 1 24.05.2027 -
Rubens Dinamo Moscow Aktiv 135 / 123 40% 1 24.05.2027 -
Jacques Ekomié Wrexham Aktiv 121 / 135 40% 3 23.05.2027 -
Saša Lukić Ipswich Town Aktiv 138 / 142 40% 6 23.05.2027 -
Adam Wharton Crystal Palace Aktiv 152 / 160 40% 2 23.05.2027 -
Marvin Kaleta Rotherham United Aktiv 112 / 116 40% 1 23.05.2027 -
Jack Currie Oxford United Aktiv 114 / 114 40% 1 23.05.2027 -
Ethan Ampadu Leeds United Aktiv 139 / 135 40% 1 23.05.2027 -
Nordi Mukiele Sunderland Aktiv 147 / 140 40% 2 22.05.2027 -
Jonathan Varane Queens Park Rangers Aktiv 119 / 132 40% 1 22.05.2027 -
Kwadwo Baah Watford Aktiv 136 / 133 40% 4 21.05.2027 -
Marquinhos Spartak Moscow Aktiv 137 / 130 40% 2 21.05.2027 -
Luís Henrique Inter Aktiv 137 / 146 40% 2 21.05.2027 -
Tomás Chetelain Estudiantes Aktiv 89 / 97 40% 1 21.05.2027 -
Luis Montilla San Telmo Aktiv 87 / 95 40% 1 21.05.2027 -
Uriel Ramos Defensa y Justicia Aktiv 97 / 107 40% 1 21.05.2027 -
Jay McGrath Doncaster Rovers Aktiv 111 / 112 40% 1 20.05.2027 -
Caspar Jander Southampton Aktiv 139 / 129 40% 3 17.05.2027 -
Axel Afonso Atlético Tucumán Aktiv 87 / 101 40% 2 16.05.2027 -
Juanlu Bournemouth Aktiv 151 / 155 40% 2 16.05.2027 -
Jack Hinshelwood Brighton Aktiv 152 / 150 40% 1 16.05.2027 -
Igor Burnley Aktiv 139 / 134 40% 1 16.05.2027 -
Santino Barbi Talleres Aktiv 114 / 122 40% 2 15.05.2027 -
Andrew Rick Philadelphia Union Aktiv 96 / 112 40% 1 15.05.2027 -
Luan Patrick Estrela da Amadora Aktiv 114 / 110 40% 5 14.05.2027 -
Anton Stach Leeds United Aktiv 149 / 152 40% 2 14.05.2027 Mehr Infos nötig
Kevin Schade Brentford Aktiv 160 / 152 40% 1 14.05.2027 -
Oliver Arblaster Sheffield United Aktiv 134 / 136 40% 1 11.05.2027 -
Pedro Lima Sporting CP Aktiv 112 / 115 40% 1 11.05.2027 -
Morgan Gibbs-White Nottingham Forest Aktiv 149 / 159 40% 1 10.05.2027 -
João Fonseca Benfica Aktiv 110 / 106 40% 2 09.05.2027 -
Aaron Hickey Brentford Aktiv 138 / 145 40% 2 09.05.2027 -
Ethan Pye Stockport County Aktiv 124 / 109 40% 2 09.05.2027 -
Nobel Mendy Hull City Aktiv 136 / 145 40% 3 08.05.2027 -
Exequiel Palacios Ipswich Town Aktiv 163 / 161 40% 2 08.05.2027 -
Rayan Lucas Alverca Aktiv 102 / 115 40% 2 08.05.2027 -
Máximo Perrone Como Aktiv 139 / 145 40% 1 08.05.2027 -
Anel Ahmedhodžić Burnley Aktiv 143 / 142 40% 1 06.05.2027 -
Gonçalo Oliveira Benfica Aktiv 116 / 114 40% 1 06.05.2027 -
Festy Ebosele Basaksehir Aktiv 126 / 134 40% 1 06.05.2027 -
João Moreira Al Nasr Aktiv 124 / 118 40% 2 05.05.2027 -
Wagner Pina Trabzonspor Aktiv 126 / 140 40% 1 05.05.2027 -
Kristoffer Lund Birmingham Aktiv 126 / 117 40% 3 04.05.2027 -
Elis Bishesari IFK Goteborg Aktiv 121 / 121 40% 1 04.05.2027 -
Khama Dolly Ajax Cape Town Aktiv 91 / 104 40% 1 04.05.2027 -
Agustín Nogueira Barracas Central Aktiv 89 / 95 40% 1 04.05.2027 -
Josh King Charlton Athletic Aktiv 140 / 139 40% 1 04.05.2027 -
Matthew Targett Hull City Aktiv 122 / 132 40% 2 03.05.2027 -
Diego Gómez Brighton Aktiv 141 / 156 40% 1 03.05.2027 -
Juan Giménez Rayo Vallecano Aktiv 111 / 115 40% 1 03.05.2027 -
Amadou Onana Aston Villa Aktiv 162 / 150 40% 1 03.05.2027 -
Carlos Augusto Inter Aktiv 158 / 158 40% 1 02.05.2027 -
Dara O'Shea Ipswich Town Aktiv 140 / 133 40% 1 02.05.2027 -
Stephen Eustáquio Swansea City Aktiv 138 / 128 40% 3 30.04.2027 -
Leon Goretzka Aston Villa Aktiv 152 / 146 40% 2 30.04.2027 -
Ulíses López Barracas Central Aktiv 88 / 88 40% 1 30.04.2027 -
Franco Capponi Leganés Aktiv 98 / 98 40% 1 30.04.2027 -
Romário Cunha Braga Aktiv 98 / 86 40% 1 28.04.2027 -
Luis Quintero Torreense Aktiv 125 / 121 40% 1 28.04.2027 -
Matheus Gonçalves Al-Ahli Aktiv 123 / 139 40% 1 27.04.2027 -
Harrison Burrows Sheffield United Aktiv 134 / 137 40% 3 26.04.2027 -
Thiago Sabella Banfield Aktiv 87 / 88 40% 2 26.04.2027 -
Quinten Timber Crystal Palace Aktiv 159 / 154 40% 1 26.04.2027 -
Yasin Ayari Brighton Aktiv 139 / 152 40% 1 26.04.2027 -
Brodie Spencer Oxford United Aktiv 128 / 133 40% 1 25.04.2027 -
Lewis Cook Bournemouth Aktiv 154 / 141 40% 1 24.04.2027 -
Arthur do Vale Santos Aktiv 89 / 102 40% 1 23.04.2027 -
Emiliano Zacca Deportivo Riestra Aktiv 93 / 91 40% 1 23.04.2027 -
Marc Bola Watford Aktiv 120 / 130 40% 1 21.04.2027 -
Willyan Rocha Al Jazira Aktiv 123 / 128 40% 1 20.04.2027 -
Edoardo Bove Watford Aktiv 140 / 143 40% 1 20.04.2027 -
Liam Thompson Mansfield Town Aktiv 112 / 106 40% 1 20.04.2027 -
Habib Diarra Sunderland Aktiv 136 / 149 40% 1 20.04.2027 -
Michael Kayode Brentford Aktiv 155 / 154 40% 1 18.04.2027 -
Youri Baas Bournemouth Aktiv 153 / 144 40% 1 18.04.2027 -
Teden Mengi Luton Town Aktiv 125 / 132 40% 1 18.04.2027 -
Murillo Nottingham Forest Aktiv 151 / 161 40% 1 17.04.2027 -
Bobby Thomas Coventry City Aktiv 138 / 130 40% 2 16.04.2027 -
Harry Clarke Preston Aktiv 131 / 125 40% 1 15.04.2027 -
Tom Fellows Southampton Aktiv 135 / 130 40% 1 14.04.2027 -
Rumarn Burrell Queens Park Rangers Aktiv 134 / 114 40% 1 14.04.2027 -
Pedro Mirassol Aktiv 84 / 89 40% 1 13.04.2027 -
Jhon Jhon Zenit Aktiv 141 / 128 40% 1 12.04.2027 -
Welington Southampton Aktiv 130 / 139 40% 1 12.04.2027 -
Rivaldo Mouscron Aktiv 123 / 125 40% 1 11.04.2027 -
Imrân Louza Watford Aktiv 130 / 135 40% 1 11.04.2027 -
Ilyas Ansah Hull City Aktiv 134 / 125 40% 1 11.04.2027 -
Jimmy Dunne Queens Park Rangers Aktiv 128 / 117 40% 1 10.04.2027 -
Wendel Zenit Aktiv 150 / 153 40% 1 10.04.2027 -
Jovon Makama Norwich City Aktiv 121 / 127 40% 1 10.04.2027 -
Mohamed Belloumi Hull City Aktiv 144 / 146 40% 1 10.04.2027 -
Samuel Dahl Benfica Aktiv 142 / 149 40% 1 09.04.2027 -
Gonçalo Inácio Sporting CP Aktiv 144 / 141 40% 2 08.04.2027 -
Moisés CSKA Moscow Aktiv 125 / 140 40% 1 08.04.2027 -
Rafik Guitane Estoril Praia Aktiv 125 / 126 40% 1 07.04.2027 -
Abraham Marcus Estrela da Amadora Aktiv 123 / 130 40% 1 07.04.2027 -
Rodrigo Pinheiro Famalicao Aktiv 133 / 125 40% 4 06.04.2027 -
Pau Víctor Braga Aktiv 136 / 131 40% 1 06.04.2027 -
Alfonso Trezza Arouca Aktiv 130 / 116 40% 1 06.04.2027 -
Geny Sporting CP Aktiv 137 / 140 40% 1 06.04.2027 -
Gabriel Sara Galatasaray Aktiv 144 / 153 40% 2 05.04.2027 -
Alexander Bah Benfica Aktiv 144 / 136 40% 1 05.04.2027 -
Wilmar Gonzalez Universitario Popayan Aktiv 91 / 98 40% 1 05.04.2027 -
Santi García Gil Vicente Aktiv 136 / 144 40% 1 03.04.2027 -
Andre Brooks Sheffield United Aktiv 137 / 136 40% 1 03.04.2027 -
Gustavo Silva Vitoria Guimaraes Aktiv 121 / 113 40% 2 02.04.2027 -
Borja Sainz Porto Aktiv 140 / 139 40% 3 02.04.2027 -
Tyrese Campbell Sheffield United Aktiv 133 / 115 40% 1 02.04.2027 -
Facundo Cáseres Gil Vicente Aktiv 116 / 135 40% 2 01.04.2027 -
Valery Académico de Viseu Aktiv 123 / 131 40% 1 01.04.2027 -
Yanis Begraoui Estoril Praia Aktiv 131 / 127 40% 1 31.03.2027 -
Luka Romero Cruz Azul Aktiv 133 / 117 40% 1 31.03.2027 -
Víctor Gómez Braga Aktiv 143 / 146 40% 1 28.03.2027 -
Leandrinho Sharjah Aktiv 120 / 104 40% 1 28.03.2027 -
Miguel Pires Vizela Aktiv 110 / 100 40% 1 28.03.2027 -
Juan Cruz de los Santos Pacos de Ferreira Aktiv 119 / 130 40% 1 27.03.2027 -
Sidney Lima Santa Clara Aktiv 123 / 129 40% 1 27.03.2027 -
Zeno Debast Sporting CP Aktiv 138 / 142 40% 1 25.03.2027 -
Ângelo Al-Nassr Aktiv 127 / 132 40% 2 24.03.2027 -
Christian Krasnodar Aktiv 139 / 132 40% 1 24.03.2027 -
Finn van Breemen Famalicao Aktiv 123 / 120 40% 1 24.03.2027 -
Jordan Holsgrove Estoril Praia Aktiv 125 / 127 40% 1 23.03.2027 -
Ole Pohlmann Rio Ave Aktiv 121 / 114 40% 1 22.03.2027 -
Adryelson Al Wasl Aktiv 138 / 122 40% 1 21.03.2027 -
Leonardo Realpe Famalicao Aktiv 116 / 114 40% 1 21.03.2027 -
Gonçalo Nogueira Vitoria Guimaraes Aktiv 127 / 113 40% 1 19.03.2027 -
Jean-Baptiste Gorby Braga Aktiv 124 / 130 40% 1 19.03.2027 -
Kamogelo Sebelebele Orlando Pirates Aktiv 118 / 119 40% 1 19.03.2027 -
Tim Iroegbunam Hull City Aktiv 144 / 148 40% 1 18.03.2027 -
Nuno Félix Benfica Aktiv 122 / 125 40% 1 18.03.2027 -
Dinis Pinto Moreirense Aktiv 129 / 128 40% 1 17.03.2027 -
Juan Bezerra Zamalek Aktiv 130 / 119 40% 1 17.03.2027 -
Afonso Peixoto Felgueiras Aktiv 95 / 97 40% 1 16.03.2027 -
Bright Arrey-Mbi Braga Aktiv 143 / 136 40% 1 16.03.2027 -